»·PEaware :: N899M KLAX-KLAS

N899M :: KLAX-KLAS

FLIGHT INFORMATION

Flight Status: Arrived
Operator: Privately registered:
United States
More flights under this callsign
Pilot: Robert C. (30425)
Aircraft: Unknown
(EPIC)
More flights by this aircraft type
Origin: KLAX Los Angeles Intl
United States
Destination: KLAS McCarran Intl
United States
More flights between these airports :: More routes between these airports
Route: SKWRL2 VALEY SLAPP V518 PMD V12 ETHER V12 HEC CRESO4
File this flight plan on PilotEdge
Remarks:
Altitude:
(Current/Filed)
13,000ft
Speed:
(Current/Filed)
300kts
Departed: 23-Nov-20 09:46 PM
Arrived: 23-Nov-20 10:54 PM
Distance/Time
Traveled:
205nm/1:08
Distance/Time
To Go:
Arrived

Flight Plot

Page will automatically refresh every two minutes.

Flight plan parsing failed; only flown route is shown


Map Options




Map Legend


Flown Route
Filed Route
Departure Airport
Arrival Airport
Navaid (VOR, NDB)
Fix

Horizontal Profiles

Position Reports

Time Latitude Longitude Heading Altitude Ground
Speed
23-Nov-20 21:05 33.932730 -118.397670 304 119ft 0kts
23-Nov-20 21:06 33.932730 -118.397670 304 119ft 0kts
23-Nov-20 21:07 33.932730 -118.397670 304 119ft 0kts
23-Nov-20 21:08 33.932730 -118.397670 304 119ft 0kts
23-Nov-20 21:09 33.932730 -118.397670 304 119ft 0kts
23-Nov-20 21:10 33.932730 -118.397670 304 119ft 0kts
23-Nov-20 21:11 33.932730 -118.397670 304 119ft 0kts
23-Nov-20 21:12 33.932730 -118.397670 304 119ft 0kts
23-Nov-20 21:13 33.932730 -118.397670 304 119ft 0kts
23-Nov-20 21:14 33.932730 -118.397670 304 119ft 0kts
23-Nov-20 21:15 33.932730 -118.397670 304 119ft 0kts
23-Nov-20 21:16 33.932730 -118.397670 304 119ft 0kts
23-Nov-20 21:17 33.932730 -118.397670 304 119ft 0kts
23-Nov-20 21:18 33.932730 -118.397670 304 119ft 0kts
23-Nov-20 21:19 33.932730 -118.397670 304 119ft 0kts
23-Nov-20 21:20 33.932730 -118.397670 304 119ft 0kts
23-Nov-20 21:21 33.932730 -118.397670 304 119ft 0kts
23-Nov-20 21:22 33.932730 -118.397670 304 119ft 0kts
23-Nov-20 21:23 33.932730 -118.397670 304 119ft 0kts
23-Nov-20 21:24 33.932730 -118.397670 304 119ft 0kts
23-Nov-20 21:25 33.932730 -118.397670 304 119ft 0kts
23-Nov-20 21:26 33.932730 -118.397670 304 119ft 0kts
23-Nov-20 21:27 33.932730 -118.397670 304 119ft 0kts
23-Nov-20 21:28 33.932730 -118.397670 304 119ft 0kts
23-Nov-20 21:29 33.932730 -118.397670 304 119ft 0kts
23-Nov-20 21:30 33.932730 -118.397670 304 119ft 0kts
23-Nov-20 21:31 33.932730 -118.397670 304 119ft 0kts
23-Nov-20 21:32 33.932730 -118.397670 304 119ft 0kts
23-Nov-20 21:33 33.932730 -118.397670 304 119ft 0kts
23-Nov-20 21:34 33.932730 -118.397670 304 119ft 0kts
23-Nov-20 21:35 33.932730 -118.397670 304 119ft 0kts
23-Nov-20 21:36 33.932730 -118.397670 304 119ft 0kts
23-Nov-20 21:37 33.932790 -118.397765 316 119ft 1kts
23-Nov-20 21:38 33.934049 -118.398089 358 114ft 9kts
23-Nov-20 21:39 33.934832 -118.395611 82 108ft 9kts
23-Nov-20 21:40 33.935100 -118.392808 81 105ft 7kts
23-Nov-20 21:41 33.935328 -118.390559 82 103ft 6kts
23-Nov-20 21:42 33.935808 -118.385982 82 102ft 20kts
23-Nov-20 21:43 33.936381 -118.382779 18 99ft 0kts
23-Nov-20 21:44 33.936387 -118.382777 16 99ft 0kts
23-Nov-20 21:45 33.936123 -118.395089 263 155ft 142kts
23-Nov-20 21:46 33.929075 -118.457840 262 1851ft 231kts
23-Nov-20 21:47 33.918965 -118.540221 263 3580ft 259kts
23-Nov-20 21:48 33.907335 -118.627135 264 5270ft 267kts
23-Nov-20 21:49 33.956535 -118.660177 36 6894ft 264kts
23-Nov-20 21:50 33.993783 -118.584980 56 8573ft 260kts
23-Nov-20 21:51 34.052749 -118.574763 357 10284ft 242kts
23-Nov-20 21:52 34.115413 -118.540343 22 11990ft 252kts
23-Nov-20 21:53 34.178403 -118.498152 23 12988ft 277kts
23-Nov-20 21:54 34.248766 -118.451076 19 12981ft 294kts
23-Nov-20 21:55 34.323482 -118.409607 19 12981ft 297kts
23-Nov-20 21:56 34.398468 -118.368085 19 12968ft 296kts
23-Nov-20 21:57 34.469904 -118.320489 44 12979ft 304kts
23-Nov-20 21:58 34.522042 -118.239018 46 12986ft 305kts
23-Nov-20 21:59 34.573303 -118.157059 47 12995ft 305kts
23-Nov-20 22:00 34.624479 -118.074883 50 12994ft 307kts
23-Nov-20 22:01 34.641762 -117.969824 77 12989ft 321kts
23-Nov-20 22:02 34.653528 -117.862220 77 12977ft 321kts
23-Nov-20 22:03 34.665152 -117.754768 77 12967ft 321kts
23-Nov-20 22:04 34.676677 -117.647023 77 12961ft 321kts
23-Nov-20 22:05 34.688091 -117.539396 77 12958ft 321kts
23-Nov-20 22:06 34.699440 -117.431423 77 12957ft 322kts
23-Nov-20 22:07 34.710706 -117.323690 77 12952ft 322kts
23-Nov-20 22:08 34.721982 -117.215222 77 12951ft 322kts
23-Nov-20 22:09 34.733050 -117.107730 77 12949ft 316kts
23-Nov-20 22:10 34.743629 -117.003860 78 12951ft 304kts
23-Nov-20 22:11 34.753839 -116.902354 79 12953ft 301kts
23-Nov-20 22:12 34.763907 -116.801358 79 12953ft 301kts
23-Nov-20 22:13 34.773917 -116.700211 79 12960ft 300kts
23-Nov-20 22:14 34.783818 -116.599314 79 12963ft 301kts
23-Nov-20 22:15 34.793619 -116.498567 79 12973ft 299kts
23-Nov-20 22:16 34.833490 -116.415853 42 12973ft 286kts
23-Nov-20 22:17 34.887642 -116.344718 42 12978ft 286kts
23-Nov-20 22:18 34.941601 -116.274070 41 12974ft 284kts
23-Nov-20 22:19 34.995161 -116.203823 41 12965ft 281kts
23-Nov-20 22:20 35.048006 -116.134373 40 12949ft 278kts
23-Nov-20 22:21 35.100244 -116.065590 40 12948ft 275kts
23-Nov-20 22:22 35.152606 -115.996491 40 12957ft 276kts
23-Nov-20 22:23 35.204709 -115.927591 40 12956ft 276kts
23-Nov-20 22:24 35.256734 -115.858655 40 12948ft 276kts
23-Nov-20 22:25 35.307043 -115.791809 40 12621ft 253kts
23-Nov-20 22:26 35.353783 -115.729695 40 11415ft 245kts
23-Nov-20 22:27 35.398801 -115.669699 40 10512ft 234kts
23-Nov-20 22:28 35.446253 -115.606390 41 10005ft 260kts
23-Nov-20 22:29 35.494741 -115.541348 42 10000ft 258kts
23-Nov-20 22:30 35.542444 -115.475329 42 10000ft 257kts
23-Nov-20 22:31 35.590283 -115.410593 41 9998ft 251kts
23-Nov-20 22:32 35.636417 -115.348456 41 9999ft 243kts
23-Nov-20 22:33 35.681297 -115.287197 49 9987ft 244kts
23-Nov-20 22:34 35.728633 -115.232566 21 9318ft 241kts
23-Nov-20 22:35 35.787207 -115.197479 21 8091ft 227kts
23-Nov-20 22:36 35.842874 -115.164640 21 7010ft 213kts
23-Nov-20 22:38 35.891017 -115.136023 21 6989ft 176kts
23-Nov-20 22:39 35.933152 -115.110584 20 6991ft 162kts
23-Nov-20 22:40 35.973261 -115.088040 13 6992ft 154kts
23-Nov-20 22:41 36.014767 -115.080680 2 6991ft 149kts
23-Nov-20 22:42 36.055682 -115.075515 2 6994ft 155kts
23-Nov-20 22:43 36.098884 -115.061062 13 6987ft 165kts
23-Nov-20 22:44 36.136555 -115.073182 305 6985ft 162kts
23-Nov-20 22:45 36.141171 -115.125333 234 5395ft 195kts
23-Nov-20 22:46 36.105148 -115.151856 210 3641ft 124kts
23-Nov-20 22:47 36.068604 -115.170899 207 3587ft 149kts
23-Nov-20 22:48 36.038931 -115.150880 76 3336ft 144kts
23-Nov-20 22:49 36.067654 -115.124478 21 3288ft 130kts
23-Nov-20 22:50 36.100662 -115.104227 22 3287ft 134kts
23-Nov-20 22:51 36.131409 -115.110071 303 3063ft 136kts
23-Nov-20 22:52 36.115589 -115.146560 209 2531ft 142kts
23-Nov-20 22:53 36.089699 -115.162612 243 2124ft 48kts
23-Nov-20 22:54 36.083878 -115.166478 241 2151ft 21kts

Navigation Log

Ident Type
Flight plan parsing failed, navigation log unavailable